Ruby Airport Ruby US
ICAO: PARY
IATA:
Category: Medium
Scheduled Services:

Elevation: 658 ft
TransAlt. 18000 ft.

Airport Communications:
ASOS:119.925
ANCHORAGE CNTR:127
CTAF:122.8
FAIRBANKS RDO:122.2

PARY Zoom In..

If you have problems with the map follow the link
https://www.worldairports.se/pages/airport.php?
ICAO=PARY

Runways:

(A) RW 03 length 4000 ft width 100 ft
---- / hdg 31

(B) RW 21 length 4000 ft width 100 ft
---- / hdg 211

Location; PARY
Day. 23 / Time. 23.56 Zulu
* Altimeter: 29.91
* Temperature: -17° c. -1.4°f.
* Wind from: 300° Speed 05 kn.
Dewpoint: -20° c.
Visibility: 1 m.
Clouds: Broken 800 ft.
Clouds: Broken 1300 ft.
Clouds: Overcast 2200 ft.
Conditions: Light Snow.

PARY 232356Z AUTO 30005KT 1 3/4SM -SN BKN008 BKN013 OVC022 M17/M20 A2991 RMK AO2 CIG 004V011 SLP154 P0000 60000 T11721200 11172 21217 52002 FZRANO


Wind From 300°
Speed 05 kn.

 
 
jpsmedia worldairports.se 2020   terms of use